Saltillo, Texas
Current Conditions -  °F | °C
As of 8:35 PM on Friday 24 Oct 2014 (Local Time) from KSLR Reporting Station
Clear Clear  
Wind Chill: 71°   Ceiling: Unl
Heat Index: 71°   Visibility: 10mi
Dew Point: 59°   Wind: 6mph
Humidity: 66%   Direction: 170°S
Pressure: 30.11"   Gusts: NA
Location:  33.18°N, 95.33°W
Report Text: KSLR 250135Z AUTO 17005KT 10SM CLR 22/15 A3011 RMK AO2 T02170151
Loading
Personal Weather Stations






























Interactive Weather Map
Tropical Storm Tracking
New forecast layout! Learn more

10-Day Weather Forecast

Advertisements
Track Severe Weather on mobile